sensor_id;sensor_type;location;lat;lon;timestamp;P1;durP1;ratioP1;P2;durP2;ratioP2
3735;SDS011;1883;48.202;16.310;2024-02-26T00:01:03;16.20;;;4.47;;
3735;SDS011;1883;48.202;16.310;2024-02-26T00:03:31;19.83;;;4.00;;
3735;SDS011;1883;48.202;16.310;2024-02-26T00:06:01;14.03;;;4.20;;
3735;SDS011;1883;48.202;16.310;2024-02-26T00:08:30;13.37;;;4.20;;
3735;SDS011;1883;48.202;16.310;2024-02-26T00:10:58;34.53;;;4.07;;
3735;SDS011;1883;48.202;16.310;2024-02-26T00:13:23;14.00;;;3.70;;
3735;SDS011;1883;48.202;16.310;2024-02-26T00:15:50;12.47;;;4.00;;
3735;SDS011;1883;48.202;16.310;2024-02-26T00:18:17;17.67;;;4.87;;
3735;SDS011;1883;48.202;16.310;2024-02-26T00:20:45;19.40;;;4.50;;
3735;SDS011;1883;48.202;16.310;2024-02-26T00:23:14;20.50;;;4.23;;
3735;SDS011;1883;48.202;16.310;2024-02-26T00:25:44;17.67;;;4.43;;
3735;SDS011;1883;48.202;16.310;2024-02-26T00:28:12;12.37;;;3.83;;
3735;SDS011;1883;48.202;16.310;2024-02-26T00:30:40;13.87;;;4.30;;
3735;SDS011;1883;48.202;16.310;2024-02-26T00:33:07;14.77;;;3.33;;
3735;SDS011;1883;48.202;16.310;2024-02-26T00:35:37;14.23;;;3.70;;
3735;SDS011;1883;48.202;16.310;2024-02-26T00:38:04;15.03;;;4.67;;
3735;SDS011;1883;48.202;16.310;2024-02-26T00:40:31;10.70;;;4.03;;
3735;SDS011;1883;48.202;16.310;2024-02-26T00:42:59;19.03;;;4.13;;
3735;SDS011;1883;48.202;16.310;2024-02-26T00:45:27;16.43;;;4.90;;
3735;SDS011;1883;48.202;16.310;2024-02-26T00:47:59;13.73;;;4.23;;
3735;SDS011;1883;48.202;16.310;2024-02-26T00:50:29;13.27;;;4.07;;
3735;SDS011;1883;48.202;16.310;2024-02-26T00:52:56;23.93;;;5.90;;
3735;SDS011;1883;48.202;16.310;2024-02-26T00:55:24;19.50;;;4.20;;
3735;SDS011;1883;48.202;16.310;2024-02-26T00:57:52;17.27;;;5.33;;
3735;SDS011;1883;48.202;16.310;2024-02-26T01:00:21;19.00;;;4.77;;
3735;SDS011;1883;48.202;16.310;2024-02-26T01:02:48;21.97;;;5.70;;
3735;SDS011;1883;48.202;16.310;2024-02-26T01:05:15;13.87;;;4.83;;
3735;SDS011;1883;48.202;16.310;2024-02-26T01:07:42;17.43;;;4.80;;
3735;SDS011;1883;48.202;16.310;2024-02-26T01:10:10;27.10;;;5.27;;
3735;SDS011;1883;48.202;16.310;2024-02-26T01:12:37;24.20;;;5.87;;
3735;SDS011;1883;48.202;16.310;2024-02-26T01:15:04;29.17;;;5.43;;
3735;SDS011;1883;48.202;16.310;2024-02-26T01:17:34;18.73;;;5.73;;
3735;SDS011;1883;48.202;16.310;2024-02-26T01:20:01;15.30;;;5.23;;
3735;SDS011;1883;48.202;16.310;2024-02-26T01:22:28;19.37;;;6.83;;
3735;SDS011;1883;48.202;16.310;2024-02-26T01:24:55;27.17;;;8.60;;
3735;SDS011;1883;48.202;16.310;2024-02-26T01:27:23;30.57;;;9.30;;
3735;SDS011;1883;48.202;16.310;2024-02-26T01:29:52;34.73;;;10.60;;
3735;SDS011;1883;48.202;16.310;2024-02-26T01:32:19;38.63;;;10.70;;
3735;SDS011;1883;48.202;16.310;2024-02-26T01:34:47;43.43;;;11.97;;
3735;SDS011;1883;48.202;16.310;2024-02-26T01:37:14;34.87;;;9.50;;
3735;SDS011;1883;48.202;16.310;2024-02-26T01:39:41;31.03;;;7.70;;
3735;SDS011;1883;48.202;16.310;2024-02-26T01:42:08;23.40;;;6.87;;
3735;SDS011;1883;48.202;16.310;2024-02-26T01:44:35;19.70;;;6.67;;
3735;SDS011;1883;48.202;16.310;2024-02-26T01:47:03;18.73;;;5.70;;
3735;SDS011;1883;48.202;16.310;2024-02-26T01:49:32;17.97;;;5.63;;
3735;SDS011;1883;48.202;16.310;2024-02-26T01:52:01;23.07;;;5.63;;
3735;SDS011;1883;48.202;16.310;2024-02-26T01:54:30;24.83;;;5.10;;
3735;SDS011;1883;48.202;16.310;2024-02-26T01:56:58;18.03;;;5.70;;
3735;SDS011;1883;48.202;16.310;2024-02-26T01:59:25;18.87;;;5.47;;
3735;SDS011;1883;48.202;16.310;2024-02-26T02:01:54;16.43;;;5.43;;
3735;SDS011;1883;48.202;16.310;2024-02-26T02:04:23;20.43;;;5.83;;
3735;SDS011;1883;48.202;16.310;2024-02-26T02:06:51;24.77;;;5.83;;
3735;SDS011;1883;48.202;16.310;2024-02-26T02:09:21;15.57;;;5.83;;
3735;SDS011;1883;48.202;16.310;2024-02-26T02:11:52;17.53;;;5.93;;
3735;SDS011;1883;48.202;16.310;2024-02-26T02:14:20;29.77;;;5.80;;
3735;SDS011;1883;48.202;16.310;2024-02-26T02:16:48;24.00;;;5.70;;
3735;SDS011;1883;48.202;16.310;2024-02-26T02:19:16;18.17;;;5.70;;
3735;SDS011;1883;48.202;16.310;2024-02-26T02:21:44;17.40;;;6.30;;
3735;SDS011;1883;48.202;16.310;2024-02-26T02:24:12;15.30;;;5.60;;
3735;SDS011;1883;48.202;16.310;2024-02-26T02:26:39;16.03;;;4.90;;
3735;SDS011;1883;48.202;16.310;2024-02-26T02:29:06;13.43;;;5.30;;
3735;SDS011;1883;48.202;16.310;2024-02-26T02:31:34;26.87;;;6.10;;
3735;SDS011;1883;48.202;16.310;2024-02-26T02:34:01;24.07;;;5.33;;
3735;SDS011;1883;48.202;16.310;2024-02-26T02:36:29;26.77;;;6.17;;
3735;SDS011;1883;48.202;16.310;2024-02-26T02:38:58;14.40;;;5.37;;
3735;SDS011;1883;48.202;16.310;2024-02-26T02:41:24;27.27;;;5.20;;
3735;SDS011;1883;48.202;16.310;2024-02-26T02:43:55;20.60;;;5.87;;
3735;SDS011;1883;48.202;16.310;2024-02-26T02:46:22;17.87;;;5.80;;
3735;SDS011;1883;48.202;16.310;2024-02-26T02:48:48;13.17;;;4.73;;
3735;SDS011;1883;48.202;16.310;2024-02-26T02:51:15;21.40;;;5.20;;
3735;SDS011;1883;48.202;16.310;2024-02-26T02:53:43;19.43;;;5.60;;
3735;SDS011;1883;48.202;16.310;2024-02-26T02:56:12;14.40;;;5.20;;
3735;SDS011;1883;48.202;16.310;2024-02-26T02:58:39;17.00;;;4.73;;
3735;SDS011;1883;48.202;16.310;2024-02-26T03:01:09;15.90;;;4.67;;
3735;SDS011;1883;48.202;16.310;2024-02-26T03:03:37;18.37;;;5.43;;
3735;SDS011;1883;48.202;16.310;2024-02-26T03:06:04;17.63;;;5.30;;
3735;SDS011;1883;48.202;16.310;2024-02-26T03:08:31;16.60;;;5.83;;
3735;SDS011;1883;48.202;16.310;2024-02-26T03:10:58;10.97;;;4.13;;
3735;SDS011;1883;48.202;16.310;2024-02-26T03:13:27;9.70;;;3.90;;
3735;SDS011;1883;48.202;16.310;2024-02-26T03:15:54;20.53;;;5.20;;
3735;SDS011;1883;48.202;16.310;2024-02-26T03:18:22;19.60;;;5.13;;
3735;SDS011;1883;48.202;16.310;2024-02-26T03:20:50;10.37;;;4.10;;
3735;SDS011;1883;48.202;16.310;2024-02-26T03:23:21;11.73;;;4.80;;
3735;SDS011;1883;48.202;16.310;2024-02-26T03:25:48;25.20;;;4.80;;
3735;SDS011;1883;48.202;16.310;2024-02-26T03:28:17;18.20;;;5.20;;
3735;SDS011;1883;48.202;16.310;2024-02-26T03:30:46;11.83;;;4.20;;
3735;SDS011;1883;48.202;16.310;2024-02-26T03:33:14;13.97;;;4.47;;
3735;SDS011;1883;48.202;16.310;2024-02-26T03:35:41;16.07;;;4.97;;
3735;SDS011;1883;48.202;16.310;2024-02-26T03:38:09;14.33;;;4.83;;
3735;SDS011;1883;48.202;16.310;2024-02-26T03:40:36;21.40;;;5.70;;
3735;SDS011;1883;48.202;16.310;2024-02-26T03:43:03;15.33;;;4.70;;
3735;SDS011;1883;48.202;16.310;2024-02-26T03:45:32;17.53;;;4.40;;
3735;SDS011;1883;48.202;16.310;2024-02-26T03:48:01;15.17;;;5.10;;
3735;SDS011;1883;48.202;16.310;2024-02-26T03:50:28;12.13;;;4.00;;
3735;SDS011;1883;48.202;16.310;2024-02-26T03:52:55;11.53;;;4.93;;
3735;SDS011;1883;48.202;16.310;2024-02-26T03:55:22;16.00;;;4.60;;
3735;SDS011;1883;48.202;16.310;2024-02-26T03:57:50;12.30;;;4.30;;
3735;SDS011;1883;48.202;16.310;2024-02-26T04:00:17;19.43;;;5.90;;
3735;SDS011;1883;48.202;16.310;2024-02-26T04:02:46;22.80;;;4.63;;
3735;SDS011;1883;48.202;16.310;2024-02-26T04:05:15;11.40;;;4.03;;
3735;SDS011;1883;48.202;16.310;2024-02-26T04:07:42;26.23;;;4.23;;
3735;SDS011;1883;48.202;16.310;2024-02-26T04:10:09;20.13;;;4.67;;
3735;SDS011;1883;48.202;16.310;2024-02-26T04:12:37;17.13;;;4.20;;
3735;SDS011;1883;48.202;16.310;2024-02-26T04:15:06;15.87;;;4.60;;
3735;SDS011;1883;48.202;16.310;2024-02-26T04:17:33;12.00;;;4.00;;
3735;SDS011;1883;48.202;16.310;2024-02-26T04:20:01;16.30;;;5.00;;
3735;SDS011;1883;48.202;16.310;2024-02-26T04:22:29;12.57;;;4.40;;
3735;SDS011;1883;48.202;16.310;2024-02-26T04:24:57;14.43;;;4.97;;
3735;SDS011;1883;48.202;16.310;2024-02-26T04:27:24;16.90;;;5.90;;
3735;SDS011;1883;48.202;16.310;2024-02-26T04:29:51;10.40;;;4.10;;
3735;SDS011;1883;48.202;16.310;2024-02-26T04:32:18;18.13;;;5.10;;
3735;SDS011;1883;48.202;16.310;2024-02-26T04:34:45;13.00;;;5.10;;
3735;SDS011;1883;48.202;16.310;2024-02-26T04:37:12;14.40;;;5.37;;
3735;SDS011;1883;48.202;16.310;2024-02-26T04:39:41;12.03;;;4.90;;
3735;SDS011;1883;48.202;16.310;2024-02-26T04:42:08;16.70;;;4.80;;
3735;SDS011;1883;48.202;16.310;2024-02-26T04:44:35;12.70;;;5.30;;
3735;SDS011;1883;48.202;16.310;2024-02-26T04:47:03;13.73;;;4.80;;
3735;SDS011;1883;48.202;16.310;2024-02-26T04:49:30;18.23;;;4.90;;
3735;SDS011;1883;48.202;16.310;2024-02-26T04:51:57;14.47;;;5.53;;
3735;SDS011;1883;48.202;16.310;2024-02-26T04:54:24;15.60;;;4.67;;
3735;SDS011;1883;48.202;16.310;2024-02-26T04:56:53;16.53;;;5.40;;
3735;SDS011;1883;48.202;16.310;2024-02-26T04:59:20;19.93;;;5.53;;
3735;SDS011;1883;48.202;16.310;2024-02-26T05:01:47;14.60;;;5.60;;
3735;SDS011;1883;48.202;16.310;2024-02-26T05:04:14;35.77;;;6.10;;
3735;SDS011;1883;48.202;16.310;2024-02-26T05:06:41;15.27;;;6.50;;
3735;SDS011;1883;48.202;16.310;2024-02-26T05:09:08;16.53;;;5.53;;
3735;SDS011;1883;48.202;16.310;2024-02-26T05:11:35;11.80;;;4.63;;
3735;SDS011;1883;48.202;16.310;2024-02-26T05:14:03;16.03;;;5.43;;
3735;SDS011;1883;48.202;16.310;2024-02-26T05:16:31;15.27;;;5.23;;
3735;SDS011;1883;48.202;16.310;2024-02-26T05:18:58;23.27;;;7.40;;
3735;SDS011;1883;48.202;16.310;2024-02-26T05:21:25;17.30;;;6.37;;
3735;SDS011;1883;48.202;16.310;2024-02-26T05:23:54;17.73;;;7.10;;
3735;SDS011;1883;48.202;16.310;2024-02-26T05:26:21;16.53;;;6.30;;
3735;SDS011;1883;48.202;16.310;2024-02-26T05:28:48;16.23;;;5.87;;
3735;SDS011;1883;48.202;16.310;2024-02-26T05:31:17;20.17;;;5.33;;
3735;SDS011;1883;48.202;16.310;2024-02-26T05:33:44;16.97;;;7.10;;
3735;SDS011;1883;48.202;16.310;2024-02-26T05:36:17;20.07;;;5.50;;
3735;SDS011;1883;48.202;16.310;2024-02-26T05:38:45;18.27;;;5.57;;
3735;SDS011;1883;48.202;16.310;2024-02-26T05:41:18;17.23;;;6.23;;
3735;SDS011;1883;48.202;16.310;2024-02-26T05:43:48;15.20;;;6.87;;
3735;SDS011;1883;48.202;16.310;2024-02-26T05:46:17;22.53;;;6.73;;
3735;SDS011;1883;48.202;16.310;2024-02-26T05:48:46;16.30;;;6.37;;
3735;SDS011;1883;48.202;16.310;2024-02-26T05:51:14;19.73;;;8.40;;
3735;SDS011;1883;48.202;16.310;2024-02-26T05:53:41;17.83;;;5.67;;
3735;SDS011;1883;48.202;16.310;2024-02-26T05:56:09;19.27;;;8.10;;
3735;SDS011;1883;48.202;16.310;2024-02-26T05:58:44;21.53;;;9.67;;
3735;SDS011;1883;48.202;16.310;2024-02-26T06:01:15;20.73;;;8.70;;
3735;SDS011;1883;48.202;16.310;2024-02-26T06:03:57;22.57;;;6.60;;
3735;SDS011;1883;48.202;16.310;2024-02-26T06:06:25;19.43;;;7.50;;
3735;SDS011;1883;48.202;16.310;2024-02-26T06:09:06;21.73;;;8.10;;
3735;SDS011;1883;48.202;16.310;2024-02-26T06:11:33;22.03;;;7.70;;
3735;SDS011;1883;48.202;16.310;2024-02-26T06:14:00;24.70;;;6.33;;
3735;SDS011;1883;48.202;16.310;2024-02-26T06:16:30;22.50;;;7.77;;
3735;SDS011;1883;48.202;16.310;2024-02-26T06:19:01;18.90;;;7.40;;
3735;SDS011;1883;48.202;16.310;2024-02-26T06:21:29;17.17;;;6.93;;
3735;SDS011;1883;48.202;16.310;2024-02-26T06:23:57;26.00;;;6.80;;
3735;SDS011;1883;48.202;16.310;2024-02-26T06:26:25;26.60;;;8.50;;
3735;SDS011;1883;48.202;16.310;2024-02-26T06:28:53;19.10;;;7.90;;
3735;SDS011;1883;48.202;16.310;2024-02-26T06:31:21;22.33;;;8.90;;
3735;SDS011;1883;48.202;16.310;2024-02-26T06:34:08;20.87;;;9.50;;
3735;SDS011;1883;48.202;16.310;2024-02-26T06:36:56;20.17;;;9.07;;
3735;SDS011;1883;48.202;16.310;2024-02-26T06:39:23;23.77;;;9.80;;
3735;SDS011;1883;48.202;16.310;2024-02-26T06:41:50;24.63;;;7.70;;
3735;SDS011;1883;48.202;16.310;2024-02-26T06:44:25;17.23;;;7.07;;
3735;SDS011;1883;48.202;16.310;2024-02-26T06:46:57;21.83;;;9.27;;
3735;SDS011;1883;48.202;16.310;2024-02-26T06:49:26;20.93;;;10.10;;
3735;SDS011;1883;48.202;16.310;2024-02-26T06:51:54;34.00;;;9.53;;
3735;SDS011;1883;48.202;16.310;2024-02-26T06:54:21;24.00;;;8.37;;
3735;SDS011;1883;48.202;16.310;2024-02-26T06:57:06;34.60;;;8.83;;
3735;SDS011;1883;48.202;16.310;2024-02-26T06:59:34;28.03;;;8.10;;
3735;SDS011;1883;48.202;16.310;2024-02-26T07:02:01;17.70;;;7.73;;
3735;SDS011;1883;48.202;16.310;2024-02-26T07:04:30;23.27;;;7.37;;
3735;SDS011;1883;48.202;16.310;2024-02-26T07:07:15;23.70;;;7.60;;
3735;SDS011;1883;48.202;16.310;2024-02-26T07:09:44;22.43;;;8.73;;
3735;SDS011;1883;48.202;16.310;2024-02-26T07:12:13;28.10;;;10.57;;
3735;SDS011;1883;48.202;16.310;2024-02-26T07:14:41;40.37;;;10.60;;
3735;SDS011;1883;48.202;16.310;2024-02-26T07:17:09;33.30;;;10.60;;
3735;SDS011;1883;48.202;16.310;2024-02-26T07:19:42;25.43;;;10.20;;
3735;SDS011;1883;48.202;16.310;2024-02-26T07:22:10;20.90;;;9.43;;
3735;SDS011;1883;48.202;16.310;2024-02-26T07:24:39;20.83;;;8.27;;
3735;SDS011;1883;48.202;16.310;2024-02-26T07:27:08;28.23;;;8.40;;
3735;SDS011;1883;48.202;16.310;2024-02-26T07:29:36;24.43;;;7.87;;
3735;SDS011;1883;48.202;16.310;2024-02-26T07:32:04;20.93;;;8.13;;
3735;SDS011;1883;48.202;16.310;2024-02-26T07:34:32;17.20;;;6.60;;
3735;SDS011;1883;48.202;16.310;2024-02-26T07:37:10;18.00;;;8.33;;
3735;SDS011;1883;48.202;16.310;2024-02-26T07:39:38;31.90;;;8.80;;
3735;SDS011;1883;48.202;16.310;2024-02-26T07:42:05;29.63;;;8.50;;
3735;SDS011;1883;48.202;16.310;2024-02-26T07:44:35;24.43;;;7.17;;
3735;SDS011;1883;48.202;16.310;2024-02-26T07:47:08;20.43;;;8.00;;
3735;SDS011;1883;48.202;16.310;2024-02-26T07:49:43;21.80;;;8.27;;
3735;SDS011;1883;48.202;16.310;2024-02-26T07:52:27;24.30;;;7.80;;
3735;SDS011;1883;48.202;16.310;2024-02-26T07:55:00;20.80;;;8.07;;
3735;SDS011;1883;48.202;16.310;2024-02-26T07:57:44;19.20;;;7.50;;
3735;SDS011;1883;48.202;16.310;2024-02-26T08:00:14;18.13;;;7.53;;
3735;SDS011;1883;48.202;16.310;2024-02-26T08:02:46;28.93;;;8.10;;
3735;SDS011;1883;48.202;16.310;2024-02-26T08:05:15;18.87;;;6.93;;
3735;SDS011;1883;48.202;16.310;2024-02-26T08:07:51;32.53;;;7.10;;
3735;SDS011;1883;48.202;16.310;2024-02-26T08:10:20;15.77;;;7.93;;
3735;SDS011;1883;48.202;16.310;2024-02-26T08:13:06;28.20;;;7.40;;
3735;SDS011;1883;48.202;16.310;2024-02-26T08:15:35;21.33;;;7.80;;
3735;SDS011;1883;48.202;16.310;2024-02-26T08:18:03;16.90;;;6.53;;
3735;SDS011;1883;48.202;16.310;2024-02-26T08:20:49;20.13;;;6.80;;
3735;SDS011;1883;48.202;16.310;2024-02-26T08:35:38;20.90;;;8.10;;
3735;SDS011;1883;48.202;16.310;2024-02-26T08:38:08;20.60;;;8.17;;
3735;SDS011;1883;48.202;16.310;2024-02-26T08:40:37;24.93;;;8.07;;
3735;SDS011;1883;48.202;16.310;2024-02-26T08:43:04;17.43;;;7.73;;
3735;SDS011;1883;48.202;16.310;2024-02-26T08:45:37;20.60;;;7.43;;
3735;SDS011;1883;48.202;16.310;2024-02-26T08:48:06;22.10;;;7.53;;
3735;SDS011;1883;48.202;16.310;2024-02-26T08:50:35;18.77;;;7.33;;
3735;SDS011;1883;48.202;16.310;2024-02-26T08:53:14;18.40;;;6.97;;
3735;SDS011;1883;48.202;16.310;2024-02-26T08:55:44;16.83;;;6.70;;
3735;SDS011;1883;48.202;16.310;2024-02-26T09:01:19;14.93;;;5.90;;
3735;SDS011;1883;48.202;16.310;2024-02-26T09:03:50;21.03;;;6.00;;
3735;SDS011;1883;48.202;16.310;2024-02-26T09:06:20;17.57;;;7.13;;
3735;SDS011;1883;48.202;16.310;2024-02-26T09:08:47;17.30;;;5.77;;
3735;SDS011;1883;48.202;16.310;2024-02-26T09:11:14;14.60;;;5.80;;
3735;SDS011;1883;48.202;16.310;2024-02-26T09:13:47;18.43;;;5.30;;
3735;SDS011;1883;48.202;16.310;2024-02-26T09:16:14;25.63;;;5.33;;
3735;SDS011;1883;48.202;16.310;2024-02-26T09:18:41;17.10;;;5.33;;
3735;SDS011;1883;48.202;16.310;2024-02-26T09:21:10;21.23;;;6.07;;
3735;SDS011;1883;48.202;16.310;2024-02-26T09:23:37;13.57;;;5.00;;
3735;SDS011;1883;48.202;16.310;2024-02-26T09:26:05;19.03;;;5.40;;
3735;SDS011;1883;48.202;16.310;2024-02-26T09:28:33;19.73;;;5.07;;
3735;SDS011;1883;48.202;16.310;2024-02-26T09:31:03;16.07;;;4.20;;
3735;SDS011;1883;48.202;16.310;2024-02-26T09:33:32;15.00;;;3.70;;
3735;SDS011;1883;48.202;16.310;2024-02-26T09:36:00;10.53;;;3.43;;
3735;SDS011;1883;48.202;16.310;2024-02-26T09:38:30;14.93;;;3.97;;
3735;SDS011;1883;48.202;16.310;2024-02-26T09:41:02;13.87;;;3.70;;
3735;SDS011;1883;48.202;16.310;2024-02-26T09:43:34;16.83;;;3.27;;
3735;SDS011;1883;48.202;16.310;2024-02-26T09:46:16;16.33;;;3.90;;
3735;SDS011;1883;48.202;16.310;2024-02-26T09:48:45;11.73;;;3.00;;
3735;SDS011;1883;48.202;16.310;2024-02-26T09:51:24;11.60;;;2.90;;
3735;SDS011;1883;48.202;16.310;2024-02-26T09:53:53;10.80;;;2.53;;
3735;SDS011;1883;48.202;16.310;2024-02-26T09:56:22;20.00;;;2.73;;
3735;SDS011;1883;48.202;16.310;2024-02-26T09:58:50;10.17;;;2.83;;
3735;SDS011;1883;48.202;16.310;2024-02-26T10:01:20;9.27;;;3.07;;
3735;SDS011;1883;48.202;16.310;2024-02-26T10:03:54;9.27;;;2.43;;
3735;SDS011;1883;48.202;16.310;2024-02-26T10:06:27;11.43;;;2.90;;
3735;SDS011;1883;48.202;16.310;2024-02-26T10:09:07;7.70;;;2.47;;
3735;SDS011;1883;48.202;16.310;2024-02-26T10:11:36;21.63;;;2.60;;
3735;SDS011;1883;48.202;16.310;2024-02-26T10:14:18;10.87;;;2.53;;
3735;SDS011;1883;48.202;16.310;2024-02-26T10:16:59;19.80;;;3.00;;
3735;SDS011;1883;48.202;16.310;2024-02-26T10:19:37;8.73;;;2.60;;
3735;SDS011;1883;48.202;16.310;2024-02-26T10:22:05;15.63;;;3.10;;
3735;SDS011;1883;48.202;16.310;2024-02-26T10:24:37;14.50;;;2.57;;
3735;SDS011;1883;48.202;16.310;2024-02-26T10:27:07;9.57;;;2.70;;
3735;SDS011;1883;48.202;16.310;2024-02-26T10:29:38;16.33;;;3.43;;
3735;SDS011;1883;48.202;16.310;2024-02-26T10:32:06;15.10;;;3.30;;
3735;SDS011;1883;48.202;16.310;2024-02-26T10:34:41;11.60;;;2.80;;
3735;SDS011;1883;48.202;16.310;2024-02-26T10:37:09;12.77;;;3.00;;
3735;SDS011;1883;48.202;16.310;2024-02-26T10:39:38;9.70;;;3.00;;
3735;SDS011;1883;48.202;16.310;2024-02-26T10:42:13;13.70;;;2.77;;
3735;SDS011;1883;48.202;16.310;2024-02-26T10:44:47;13.63;;;3.70;;
3735;SDS011;1883;48.202;16.310;2024-02-26T10:47:15;13.50;;;3.20;;
3735;SDS011;1883;48.202;16.310;2024-02-26T10:49:46;12.60;;;2.90;;
3735;SDS011;1883;48.202;16.310;2024-02-26T10:52:18;12.60;;;2.43;;
3735;SDS011;1883;48.202;16.310;2024-02-26T10:54:48;12.53;;;3.20;;
3735;SDS011;1883;48.202;16.310;2024-02-26T10:57:19;19.53;;;3.27;;
3735;SDS011;1883;48.202;16.310;2024-02-26T11:00:02;11.50;;;3.00;;
3735;SDS011;1883;48.202;16.310;2024-02-26T11:02:46;20.27;;;2.93;;
3735;SDS011;1883;48.202;16.310;2024-02-26T11:05:31;15.63;;;3.30;;
3735;SDS011;1883;48.202;16.310;2024-02-26T11:08:17;13.77;;;2.90;;
3735;SDS011;1883;48.202;16.310;2024-02-26T11:10:52;10.97;;;3.37;;
3735;SDS011;1883;48.202;16.310;2024-02-26T11:13:21;7.90;;;2.20;;
3735;SDS011;1883;48.202;16.310;2024-02-26T11:16:07;14.83;;;2.80;;
3735;SDS011;1883;48.202;16.310;2024-02-26T11:18:53;20.27;;;2.80;;
3735;SDS011;1883;48.202;16.310;2024-02-26T11:21:22;7.80;;;2.00;;
3735;SDS011;1883;48.202;16.310;2024-02-26T11:23:57;14.20;;;2.20;;
3735;SDS011;1883;48.202;16.310;2024-02-26T11:26:26;18.23;;;2.30;;
3735;SDS011;1883;48.202;16.310;2024-02-26T11:28:55;11.90;;;2.57;;
3735;SDS011;1883;48.202;16.310;2024-02-26T11:31:26;13.43;;;2.50;;
3735;SDS011;1883;48.202;16.310;2024-02-26T11:34:02;8.73;;;2.17;;
3735;SDS011;1883;48.202;16.310;2024-02-26T11:36:32;8.30;;;2.23;;
3735;SDS011;1883;48.202;16.310;2024-02-26T11:38:59;6.63;;;1.50;;
3735;SDS011;1883;48.202;16.310;2024-02-26T11:41:35;11.60;;;2.87;;
3735;SDS011;1883;48.202;16.310;2024-02-26T11:44:03;11.17;;;2.30;;
3735;SDS011;1883;48.202;16.310;2024-02-26T11:46:38;9.10;;;1.80;;
3735;SDS011;1883;48.202;16.310;2024-02-26T11:52:12;8.00;;;1.73;;
3735;SDS011;1883;48.202;16.310;2024-02-26T11:54:46;8.93;;;1.40;;
3735;SDS011;1883;48.202;16.310;2024-02-26T11:57:30;8.27;;;1.70;;
3735;SDS011;1883;48.202;16.310;2024-02-26T12:00:11;9.67;;;1.57;;
3735;SDS011;1883;48.202;16.310;2024-02-26T12:02:49;9.50;;;1.43;;
3735;SDS011;1883;48.202;16.310;2024-02-26T12:08:24;8.07;;;2.03;;
3735;SDS011;1883;48.202;16.310;2024-02-26T12:11:14;15.43;;;1.77;;
3735;SDS011;1883;48.202;16.310;2024-02-26T12:14:07;9.50;;;2.17;;
3735;SDS011;1883;48.202;16.310;2024-02-26T12:16:59;10.40;;;1.93;;
3735;SDS011;1883;48.202;16.310;2024-02-26T12:19:34;15.73;;;2.40;;
3735;SDS011;1883;48.202;16.310;2024-02-26T12:22:21;12.47;;;2.83;;
3735;SDS011;1883;48.202;16.310;2024-02-26T12:25:23;12.07;;;2.90;;
3735;SDS011;1883;48.202;16.310;2024-02-26T12:28:20;10.37;;;2.77;;
3735;SDS011;1883;48.202;16.310;2024-02-26T12:47:00;11.20;;;2.47;;
3735;SDS011;1883;48.202;16.310;2024-02-26T12:49:29;8.23;;;2.20;;
3735;SDS011;1883;48.202;16.310;2024-02-26T12:52:16;12.50;;;2.47;;
3735;SDS011;1883;48.202;16.310;2024-02-26T12:54:44;19.67;;;2.30;;
3735;SDS011;1883;48.202;16.310;2024-02-26T12:57:16;7.93;;;2.10;;
3735;SDS011;1883;48.202;16.310;2024-02-26T12:59:54;16.57;;;2.30;;
3735;SDS011;1883;48.202;16.310;2024-02-26T13:02:21;12.60;;;2.20;;
3735;SDS011;1883;48.202;16.310;2024-02-26T13:05:03;12.30;;;2.27;;
3735;SDS011;1883;48.202;16.310;2024-02-26T13:07:40;11.20;;;1.73;;
3735;SDS011;1883;48.202;16.310;2024-02-26T13:10:18;8.30;;;1.70;;
3735;SDS011;1883;48.202;16.310;2024-02-26T13:12:53;10.23;;;1.50;;
3735;SDS011;1883;48.202;16.310;2024-02-26T13:18:19;17.27;;;3.60;;
3735;SDS011;1883;48.202;16.310;2024-02-26T13:20:50;10.23;;;3.30;;
3735;SDS011;1883;48.202;16.310;2024-02-26T13:23:17;9.33;;;2.10;;
3735;SDS011;1883;48.202;16.310;2024-02-26T13:25:56;7.57;;;1.90;;
3735;SDS011;1883;48.202;16.310;2024-02-26T13:28:25;10.03;;;2.27;;
3735;SDS011;1883;48.202;16.310;2024-02-26T13:30:59;9.00;;;2.20;;
3735;SDS011;1883;48.202;16.310;2024-02-26T13:33:28;8.50;;;1.50;;
3735;SDS011;1883;48.202;16.310;2024-02-26T13:36:14;8.20;;;1.80;;
3735;SDS011;1883;48.202;16.310;2024-02-26T13:38:59;7.50;;;1.97;;
3735;SDS011;1883;48.202;16.310;2024-02-26T13:41:27;14.40;;;2.00;;
3735;SDS011;1883;48.202;16.310;2024-02-26T13:43:57;9.00;;;1.90;;
3735;SDS011;1883;48.202;16.310;2024-02-26T13:49:43;10.13;;;1.93;;
3735;SDS011;1883;48.202;16.310;2024-02-26T13:52:14;7.77;;;1.83;;
3735;SDS011;1883;48.202;16.310;2024-02-26T13:54:50;9.27;;;1.90;;
3735;SDS011;1883;48.202;16.310;2024-02-26T13:57:28;16.80;;;1.73;;
3735;SDS011;1883;48.202;16.310;2024-02-26T14:00:05;9.27;;;2.13;;
3735;SDS011;1883;48.202;16.310;2024-02-26T14:06:24;9.13;;;2.00;;
3735;SDS011;1883;48.202;16.310;2024-02-26T14:11:55;9.70;;;1.90;;
3735;SDS011;1883;48.202;16.310;2024-02-26T14:14:27;6.10;;;1.10;;
3735;SDS011;1883;48.202;16.310;2024-02-26T14:16:57;12.43;;;1.93;;
3735;SDS011;1883;48.202;16.310;2024-02-26T14:19:25;7.77;;;1.63;;
3735;SDS011;1883;48.202;16.310;2024-02-26T14:30:52;6.97;;;1.60;;
3735;SDS011;1883;48.202;16.310;2024-02-26T14:33:30;13.80;;;1.70;;
3735;SDS011;1883;48.202;16.310;2024-02-26T14:36:12;9.13;;;1.67;;
3735;SDS011;1883;48.202;16.310;2024-02-26T14:38:50;9.20;;;2.27;;
3735;SDS011;1883;48.202;16.310;2024-02-26T14:41:33;9.33;;;2.03;;
3735;SDS011;1883;48.202;16.310;2024-02-26T14:44:01;6.90;;;1.50;;
3735;SDS011;1883;48.202;16.310;2024-02-26T14:46:35;7.90;;;1.73;;
3735;SDS011;1883;48.202;16.310;2024-02-26T14:49:04;11.80;;;1.53;;
3735;SDS011;1883;48.202;16.310;2024-02-26T14:51:34;9.10;;;2.17;;
3735;SDS011;1883;48.202;16.310;2024-02-26T14:54:34;11.07;;;2.50;;
3735;SDS011;1883;48.202;16.310;2024-02-26T14:57:06;8.17;;;1.80;;
3735;SDS011;1883;48.202;16.310;2024-02-26T14:59:56;8.50;;;2.40;;
3735;SDS011;1883;48.202;16.310;2024-02-26T15:05:59;7.60;;;1.50;;
3735;SDS011;1883;48.202;16.310;2024-02-26T15:08:34;15.53;;;2.83;;
3735;SDS011;1883;48.202;16.310;2024-02-26T15:16:25;7.23;;;1.67;;
3735;SDS011;1883;48.202;16.310;2024-02-26T15:19:39;8.90;;;2.17;;
3735;SDS011;1883;48.202;16.310;2024-02-26T15:25:39;16.83;;;2.67;;
3735;SDS011;1883;48.202;16.310;2024-02-26T15:28:16;9.33;;;2.50;;
3735;SDS011;1883;48.202;16.310;2024-02-26T15:33:53;12.73;;;2.70;;
3735;SDS011;1883;48.202;16.310;2024-02-26T15:36:43;9.50;;;2.47;;
3735;SDS011;1883;48.202;16.310;2024-02-26T15:39:28;7.80;;;1.80;;
3735;SDS011;1883;48.202;16.310;2024-02-26T15:45:25;15.40;;;2.53;;
3735;SDS011;1883;48.202;16.310;2024-02-26T15:48:20;11.40;;;2.47;;
3735;SDS011;1883;48.202;16.310;2024-02-26T15:51:27;11.50;;;2.43;;
3735;SDS011;1883;48.202;16.310;2024-02-26T16:14:50;5.87;;;1.50;;
3735;SDS011;1883;48.202;16.310;2024-02-26T17:28:17;9.33;;;2.43;;
3735;SDS011;1883;48.202;16.310;2024-02-26T17:30:56;9.53;;;2.70;;
3735;SDS011;1883;48.202;16.310;2024-02-26T17:33:48;16.03;;;6.00;;
3735;SDS011;1883;48.202;16.310;2024-02-26T17:36:23;12.43;;;4.33;;
3735;SDS011;1883;48.202;16.310;2024-02-26T17:39:19;16.53;;;5.17;;
3735;SDS011;1883;48.202;16.310;2024-02-26T17:42:47;10.33;;;3.30;;
3735;SDS011;1883;48.202;16.310;2024-02-26T17:48:59;15.80;;;3.17;;
3735;SDS011;1883;48.202;16.310;2024-02-26T17:51:53;15.97;;;3.30;;
3735;SDS011;1883;48.202;16.310;2024-02-26T17:54:24;11.53;;;3.13;;
3735;SDS011;1883;48.202;16.310;2024-02-26T17:57:20;15.60;;;4.00;;
3735;SDS011;1883;48.202;16.310;2024-02-26T18:00:50;12.60;;;3.43;;
3735;SDS011;1883;48.202;16.310;2024-02-26T18:03:32;12.87;;;3.50;;
3735;SDS011;1883;48.202;16.310;2024-02-26T18:29:48;9.53;;;2.40;;
3735;SDS011;1883;48.202;16.310;2024-02-26T20:49:57;11.47;;;2.50;;
3735;SDS011;1883;48.202;16.310;2024-02-26T20:53:31;16.63;;;2.60;;
3735;SDS011;1883;48.202;16.310;2024-02-26T20:56:57;24.37;;;7.23;;